sensor_id;sensor_type;location;lat;lon;timestamp;P1;durP1;ratioP1;P2;durP2;ratioP2
50900;SDS011;36879;51.416;6.678;2023-03-14T00:01:24;4.97;;;1.33;;
50900;SDS011;36879;51.416;6.678;2023-03-14T00:03:50;6.30;;;1.73;;
50900;SDS011;36879;51.416;6.678;2023-03-14T00:06:17;5.07;;;1.50;;
50900;SDS011;36879;51.416;6.678;2023-03-14T00:08:43;6.22;;;1.42;;
50900;SDS011;36879;51.416;6.678;2023-03-14T00:11:11;6.50;;;2.25;;
50900;SDS011;36879;51.416;6.678;2023-03-14T00:13:37;7.85;;;1.73;;
50900;SDS011;36879;51.416;6.678;2023-03-14T00:16:04;6.30;;;1.55;;
50900;SDS011;36879;51.416;6.678;2023-03-14T00:18:30;6.25;;;1.42;;
50900;SDS011;36879;51.416;6.678;2023-03-14T00:20:59;3.70;;;1.83;;
50900;SDS011;36879;51.416;6.678;2023-03-14T00:23:26;4.47;;;1.60;;
50900;SDS011;36879;51.416;6.678;2023-03-14T00:25:53;7.53;;;1.58;;
50900;SDS011;36879;51.416;6.678;2023-03-14T00:28:19;6.07;;;1.70;;
50900;SDS011;36879;51.416;6.678;2023-03-14T00:30:45;4.88;;;1.23;;
50900;SDS011;36879;51.416;6.678;2023-03-14T00:33:11;5.82;;;1.48;;
50900;SDS011;36879;51.416;6.678;2023-03-14T00:35:37;6.65;;;3.05;;
50900;SDS011;36879;51.416;6.678;2023-03-14T00:38:03;8.50;;;2.00;;
50900;SDS011;36879;51.416;6.678;2023-03-14T00:40:28;4.43;;;1.20;;
50900;SDS011;36879;51.416;6.678;2023-03-14T00:42:54;6.15;;;1.77;;
50900;SDS011;36879;51.416;6.678;2023-03-14T00:45:20;8.90;;;2.00;;
50900;SDS011;36879;51.416;6.678;2023-03-14T00:47:46;7.88;;;1.58;;
50900;SDS011;36879;51.416;6.678;2023-03-14T00:50:12;3.92;;;1.48;;
50900;SDS011;36879;51.416;6.678;2023-03-14T00:52:38;9.93;;;1.70;;
50900;SDS011;36879;51.416;6.678;2023-03-14T00:55:04;4.50;;;1.98;;
50900;SDS011;36879;51.416;6.678;2023-03-14T00:57:30;9.93;;;2.63;;
50900;SDS011;36879;51.416;6.678;2023-03-14T00:59:56;7.80;;;2.45;;
50900;SDS011;36879;51.416;6.678;2023-03-14T01:02:22;11.55;;;1.60;;
50900;SDS011;36879;51.416;6.678;2023-03-14T01:04:48;14.88;;;1.80;;
50900;SDS011;36879;51.416;6.678;2023-03-14T01:07:15;6.20;;;1.27;;
50900;SDS011;36879;51.416;6.678;2023-03-14T01:09:41;5.60;;;1.75;;
50900;SDS011;36879;51.416;6.678;2023-03-14T01:12:07;4.40;;;1.33;;
50900;SDS011;36879;51.416;6.678;2023-03-14T01:14:33;5.15;;;1.92;;
50900;SDS011;36879;51.416;6.678;2023-03-14T01:16:59;8.25;;;1.48;;
50900;SDS011;36879;51.416;6.678;2023-03-14T01:19:28;5.47;;;1.45;;
50900;SDS011;36879;51.416;6.678;2023-03-14T01:21:54;9.30;;;1.55;;
50900;SDS011;36879;51.416;6.678;2023-03-14T01:24:20;7.32;;;1.27;;
50900;SDS011;36879;51.416;6.678;2023-03-14T01:26:46;7.47;;;1.83;;
50900;SDS011;36879;51.416;6.678;2023-03-14T01:29:12;4.95;;;1.60;;
50900;SDS011;36879;51.416;6.678;2023-03-14T01:31:38;5.25;;;1.88;;
50900;SDS011;36879;51.416;6.678;2023-03-14T01:34:04;7.32;;;1.58;;
50900;SDS011;36879;51.416;6.678;2023-03-14T01:36:30;7.30;;;1.83;;
50900;SDS011;36879;51.416;6.678;2023-03-14T01:38:56;7.82;;;1.10;;
50900;SDS011;36879;51.416;6.678;2023-03-14T01:41:23;4.82;;;1.35;;
50900;SDS011;36879;51.416;6.678;2023-03-14T01:43:50;3.40;;;1.02;;
50900;SDS011;36879;51.416;6.678;2023-03-14T01:56:36;3.22;;;1.35;;
50900;SDS011;36879;51.416;6.678;2023-03-14T01:59:04;5.70;;;1.13;;
50900;SDS011;36879;51.416;6.678;2023-03-14T02:01:31;6.90;;;1.02;;
50900;SDS011;36879;51.416;6.678;2023-03-14T02:03:58;3.55;;;0.90;;
50900;SDS011;36879;51.416;6.678;2023-03-14T02:06:28;3.83;;;1.20;;
50900;SDS011;36879;51.416;6.678;2023-03-14T02:08:55;6.35;;;1.70;;
50900;SDS011;36879;51.416;6.678;2023-03-14T02:11:21;5.28;;;1.08;;
50900;SDS011;36879;51.416;6.678;2023-03-14T02:13:47;8.30;;;2.08;;
50900;SDS011;36879;51.416;6.678;2023-03-14T02:16:14;6.13;;;1.90;;
50900;SDS011;36879;51.416;6.678;2023-03-14T02:18:40;6.70;;;1.60;;
50900;SDS011;36879;51.416;6.678;2023-03-14T02:21:14;2.80;;;0.98;;
50900;SDS011;36879;51.416;6.678;2023-03-14T02:28:43;4.07;;;1.15;;
50900;SDS011;36879;51.416;6.678;2023-03-14T02:31:09;2.65;;;1.00;;
50900;SDS011;36879;51.416;6.678;2023-03-14T02:33:35;6.22;;;1.33;;
50900;SDS011;36879;51.416;6.678;2023-03-14T02:36:07;6.82;;;2.20;;
50900;SDS011;36879;51.416;6.678;2023-03-14T02:41:06;6.68;;;1.67;;
50900;SDS011;36879;51.416;6.678;2023-03-14T02:43:32;9.25;;;2.60;;
50900;SDS011;36879;51.416;6.678;2023-03-14T02:45:59;9.90;;;1.65;;
50900;SDS011;36879;51.416;6.678;2023-03-14T02:48:26;7.25;;;1.33;;
50900;SDS011;36879;51.416;6.678;2023-03-14T02:50:55;7.60;;;1.88;;
50900;SDS011;36879;51.416;6.678;2023-03-14T02:53:23;6.15;;;1.15;;
50900;SDS011;36879;51.416;6.678;2023-03-14T02:55:50;8.05;;;2.13;;
50900;SDS011;36879;51.416;6.678;2023-03-14T02:58:16;4.13;;;1.45;;
50900;SDS011;36879;51.416;6.678;2023-03-14T03:00:43;7.88;;;1.23;;
50900;SDS011;36879;51.416;6.678;2023-03-14T03:03:09;6.43;;;1.50;;
50900;SDS011;36879;51.416;6.678;2023-03-14T03:05:35;6.18;;;2.35;;
50900;SDS011;36879;51.416;6.678;2023-03-14T03:08:01;6.22;;;1.38;;
50900;SDS011;36879;51.416;6.678;2023-03-14T03:10:27;5.85;;;1.23;;
50900;SDS011;36879;51.416;6.678;2023-03-14T03:12:53;7.38;;;1.95;;
50900;SDS011;36879;51.416;6.678;2023-03-14T03:15:20;5.57;;;2.55;;
50900;SDS011;36879;51.416;6.678;2023-03-14T03:17:46;7.32;;;2.00;;
50900;SDS011;36879;51.416;6.678;2023-03-14T03:20:11;8.05;;;1.52;;
50900;SDS011;36879;51.416;6.678;2023-03-14T03:22:38;9.52;;;2.55;;
50900;SDS011;36879;51.416;6.678;2023-03-14T03:25:04;7.57;;;2.75;;
50900;SDS011;36879;51.416;6.678;2023-03-14T03:27:31;9.30;;;1.88;;
50900;SDS011;36879;51.416;6.678;2023-03-14T03:29:57;9.77;;;1.73;;
50900;SDS011;36879;51.416;6.678;2023-03-14T03:32:23;6.75;;;1.70;;
50900;SDS011;36879;51.416;6.678;2023-03-14T03:34:49;13.05;;;1.85;;
50900;SDS011;36879;51.416;6.678;2023-03-14T03:37:15;4.03;;;1.50;;
50900;SDS011;36879;51.416;6.678;2023-03-14T03:39:41;6.55;;;1.25;;
50900;SDS011;36879;51.416;6.678;2023-03-14T03:42:07;4.78;;;1.60;;
50900;SDS011;36879;51.416;6.678;2023-03-14T03:44:33;6.95;;;1.30;;
50900;SDS011;36879;51.416;6.678;2023-03-14T03:46:59;9.02;;;1.58;;
50900;SDS011;36879;51.416;6.678;2023-03-14T03:49:32;6.20;;;1.10;;
50900;SDS011;36879;51.416;6.678;2023-03-14T03:51:58;10.02;;;1.98;;
50900;SDS011;36879;51.416;6.678;2023-03-14T03:54:24;6.78;;;1.60;;
50900;SDS011;36879;51.416;6.678;2023-03-14T03:56:51;8.18;;;1.50;;
50900;SDS011;36879;51.416;6.678;2023-03-14T03:59:17;5.32;;;1.30;;
50900;SDS011;36879;51.416;6.678;2023-03-14T04:01:43;3.80;;;1.77;;
50900;SDS011;36879;51.416;6.678;2023-03-14T04:04:09;5.43;;;1.77;;
50900;SDS011;36879;51.416;6.678;2023-03-14T04:06:35;7.70;;;2.38;;
50900;SDS011;36879;51.416;6.678;2023-03-14T04:09:02;3.83;;;1.55;;
50900;SDS011;36879;51.416;6.678;2023-03-14T04:11:28;4.93;;;1.27;;
50900;SDS011;36879;51.416;6.678;2023-03-14T04:13:54;5.10;;;1.25;;
50900;SDS011;36879;51.416;6.678;2023-03-14T04:16:21;7.68;;;1.83;;
50900;SDS011;36879;51.416;6.678;2023-03-14T04:18:47;7.80;;;2.50;;
50900;SDS011;36879;51.416;6.678;2023-03-14T04:21:13;7.07;;;2.42;;
50900;SDS011;36879;51.416;6.678;2023-03-14T04:23:40;6.72;;;1.50;;
50900;SDS011;36879;51.416;6.678;2023-03-14T04:26:06;5.82;;;1.80;;
50900;SDS011;36879;51.416;6.678;2023-03-14T04:28:32;14.52;;;1.70;;
50900;SDS011;36879;51.416;6.678;2023-03-14T04:30:58;8.38;;;1.38;;
50900;SDS011;36879;51.416;6.678;2023-03-14T04:33:24;5.35;;;1.30;;
50900;SDS011;36879;51.416;6.678;2023-03-14T04:35:52;9.70;;;1.88;;
50900;SDS011;36879;51.416;6.678;2023-03-14T04:38:18;5.13;;;1.25;;
50900;SDS011;36879;51.416;6.678;2023-03-14T04:40:44;6.30;;;1.10;;
50900;SDS011;36879;51.416;6.678;2023-03-14T04:43:11;3.13;;;1.73;;
50900;SDS011;36879;51.416;6.678;2023-03-14T04:45:37;6.75;;;1.08;;
50900;SDS011;36879;51.416;6.678;2023-03-14T04:48:06;4.53;;;0.80;;
50900;SDS011;36879;51.416;6.678;2023-03-14T04:50:32;3.20;;;1.10;;
50900;SDS011;36879;51.416;6.678;2023-03-14T04:52:58;4.97;;;0.85;;
50900;SDS011;36879;51.416;6.678;2023-03-14T04:55:24;6.53;;;0.90;;
50900;SDS011;36879;51.416;6.678;2023-03-14T04:57:50;5.38;;;1.67;;
50900;SDS011;36879;51.416;6.678;2023-03-14T05:00:16;5.07;;;1.52;;
50900;SDS011;36879;51.416;6.678;2023-03-14T05:02:43;4.05;;;1.40;;
50900;SDS011;36879;51.416;6.678;2023-03-14T05:05:09;9.60;;;1.80;;
50900;SDS011;36879;51.416;6.678;2023-03-14T05:07:35;5.82;;;1.95;;
50900;SDS011;36879;51.416;6.678;2023-03-14T05:10:01;6.50;;;1.27;;
50900;SDS011;36879;51.416;6.678;2023-03-14T05:12:27;4.18;;;1.35;;
50900;SDS011;36879;51.416;6.678;2023-03-14T05:14:53;4.70;;;1.55;;
50900;SDS011;36879;51.416;6.678;2023-03-14T05:17:19;6.25;;;1.95;;
50900;SDS011;36879;51.416;6.678;2023-03-14T05:19:45;8.20;;;2.15;;
50900;SDS011;36879;51.416;6.678;2023-03-14T05:22:11;4.18;;;1.67;;
50900;SDS011;36879;51.416;6.678;2023-03-14T05:24:38;2.75;;;1.25;;
50900;SDS011;36879;51.416;6.678;2023-03-14T05:27:04;1.48;;;0.85;;
50900;SDS011;36879;51.416;6.678;2023-03-14T05:29:30;2.45;;;1.00;;
50900;SDS011;36879;51.416;6.678;2023-03-14T05:31:56;6.18;;;1.08;;
50900;SDS011;36879;51.416;6.678;2023-03-14T05:34:22;3.53;;;1.40;;
50900;SDS011;36879;51.416;6.678;2023-03-14T05:36:48;4.18;;;1.92;;
50900;SDS011;36879;51.416;6.678;2023-03-14T05:39:14;5.88;;;2.03;;
50900;SDS011;36879;51.416;6.678;2023-03-14T05:41:40;6.85;;;1.67;;
50900;SDS011;36879;51.416;6.678;2023-03-14T05:44:05;5.63;;;2.25;;
50900;SDS011;36879;51.416;6.678;2023-03-14T05:46:31;4.57;;;1.92;;
50900;SDS011;36879;51.416;6.678;2023-03-14T05:48:58;5.82;;;2.38;;
50900;SDS011;36879;51.416;6.678;2023-03-14T05:51:24;8.35;;;2.15;;
50900;SDS011;36879;51.416;6.678;2023-03-14T05:53:50;5.40;;;2.28;;
50900;SDS011;36879;51.416;6.678;2023-03-14T05:56:16;10.00;;;2.08;;
50900;SDS011;36879;51.416;6.678;2023-03-14T05:58:42;4.57;;;1.92;;
50900;SDS011;36879;51.416;6.678;2023-03-14T06:01:08;5.95;;;1.98;;
50900;SDS011;36879;51.416;6.678;2023-03-14T06:03:34;6.60;;;1.98;;
50900;SDS011;36879;51.416;6.678;2023-03-14T06:06:00;6.15;;;2.65;;
50900;SDS011;36879;51.416;6.678;2023-03-14T06:08:26;6.70;;;1.70;;
50900;SDS011;36879;51.416;6.678;2023-03-14T06:10:53;5.93;;;2.03;;
50900;SDS011;36879;51.416;6.678;2023-03-14T06:13:19;2.13;;;1.27;;
50900;SDS011;36879;51.416;6.678;2023-03-14T06:15:45;4.70;;;2.00;;
50900;SDS011;36879;51.416;6.678;2023-03-14T06:18:11;4.95;;;2.35;;
50900;SDS011;36879;51.416;6.678;2023-03-14T06:20:39;5.50;;;2.25;;
50900;SDS011;36879;51.416;6.678;2023-03-14T06:23:05;4.82;;;2.53;;
50900;SDS011;36879;51.416;6.678;2023-03-14T06:25:32;3.42;;;1.30;;
50900;SDS011;36879;51.416;6.678;2023-03-14T06:27:58;3.88;;;1.20;;
50900;SDS011;36879;51.416;6.678;2023-03-14T06:30:24;2.90;;;1.35;;
50900;SDS011;36879;51.416;6.678;2023-03-14T06:32:50;1.90;;;1.05;;
50900;SDS011;36879;51.416;6.678;2023-03-14T06:35:16;2.67;;;1.10;;
50900;SDS011;36879;51.416;6.678;2023-03-14T06:37:42;3.55;;;1.13;;
50900;SDS011;36879;51.416;6.678;2023-03-14T06:40:09;3.97;;;1.45;;
50900;SDS011;36879;51.416;6.678;2023-03-14T06:42:35;2.60;;;1.30;;
50900;SDS011;36879;51.416;6.678;2023-03-14T06:45:01;2.67;;;1.30;;
50900;SDS011;36879;51.416;6.678;2023-03-14T06:47:28;2.88;;;0.93;;
50900;SDS011;36879;51.416;6.678;2023-03-14T06:49:54;3.15;;;1.48;;
50900;SDS011;36879;51.416;6.678;2023-03-14T06:52:20;1.63;;;0.95;;
50900;SDS011;36879;51.416;6.678;2023-03-14T06:54:46;2.38;;;0.98;;
50900;SDS011;36879;51.416;6.678;2023-03-14T06:57:12;2.08;;;1.20;;
50900;SDS011;36879;51.416;6.678;2023-03-14T06:59:38;3.33;;;1.30;;
50900;SDS011;36879;51.416;6.678;2023-03-14T07:02:04;5.60;;;1.60;;
50900;SDS011;36879;51.416;6.678;2023-03-14T07:04:30;4.63;;;1.65;;
50900;SDS011;36879;51.416;6.678;2023-03-14T07:06:56;3.15;;;1.70;;
50900;SDS011;36879;51.416;6.678;2023-03-14T07:09:22;3.50;;;1.30;;
50900;SDS011;36879;51.416;6.678;2023-03-14T07:11:48;4.05;;;1.90;;
50900;SDS011;36879;51.416;6.678;2023-03-14T07:14:13;5.13;;;2.00;;
50900;SDS011;36879;51.416;6.678;2023-03-14T07:16:39;3.15;;;1.83;;
50900;SDS011;36879;51.416;6.678;2023-03-14T07:19:05;3.67;;;2.10;;
50900;SDS011;36879;51.416;6.678;2023-03-14T07:21:31;6.32;;;2.03;;
50900;SDS011;36879;51.416;6.678;2023-03-14T07:23:59;5.57;;;1.73;;
50900;SDS011;36879;51.416;6.678;2023-03-14T07:26:25;3.95;;;1.83;;
50900;SDS011;36879;51.416;6.678;2023-03-14T07:28:51;2.90;;;1.52;;
50900;SDS011;36879;51.416;6.678;2023-03-14T07:31:17;4.38;;;1.77;;
50900;SDS011;36879;51.416;6.678;2023-03-14T07:33:43;3.10;;;1.70;;
50900;SDS011;36879;51.416;6.678;2023-03-14T07:36:09;3.92;;;1.90;;
50900;SDS011;36879;51.416;6.678;2023-03-14T07:38:35;4.05;;;2.03;;
50900;SDS011;36879;51.416;6.678;2023-03-14T07:41:02;3.60;;;1.70;;
50900;SDS011;36879;51.416;6.678;2023-03-14T07:43:28;4.68;;;2.00;;
50900;SDS011;36879;51.416;6.678;2023-03-14T07:45:54;4.28;;;2.05;;
50900;SDS011;36879;51.416;6.678;2023-03-14T07:48:20;4.20;;;2.15;;
50900;SDS011;36879;51.416;6.678;2023-03-14T07:50:50;4.40;;;2.17;;
50900;SDS011;36879;51.416;6.678;2023-03-14T07:53:16;7.10;;;2.58;;
50900;SDS011;36879;51.416;6.678;2023-03-14T07:55:42;4.32;;;2.45;;
50900;SDS011;36879;51.416;6.678;2023-03-14T07:58:08;4.32;;;2.42;;
50900;SDS011;36879;51.416;6.678;2023-03-14T08:00:34;5.13;;;2.72;;
50900;SDS011;36879;51.416;6.678;2023-03-14T08:03:00;7.13;;;3.00;;
50900;SDS011;36879;51.416;6.678;2023-03-14T08:05:26;4.30;;;2.40;;
50900;SDS011;36879;51.416;6.678;2023-03-14T08:07:52;6.85;;;3.53;;
50900;SDS011;36879;51.416;6.678;2023-03-14T08:10:18;8.00;;;3.53;;
50900;SDS011;36879;51.416;6.678;2023-03-14T08:12:48;5.43;;;2.78;;
50900;SDS011;36879;51.416;6.678;2023-03-14T08:15:14;6.95;;;2.25;;
50900;SDS011;36879;51.416;6.678;2023-03-14T08:17:40;5.55;;;3.03;;
50900;SDS011;36879;51.416;6.678;2023-03-14T08:20:06;5.05;;;3.25;;
50900;SDS011;36879;51.416;6.678;2023-03-14T08:22:33;6.82;;;4.10;;
50900;SDS011;36879;51.416;6.678;2023-03-14T08:24:59;5.20;;;2.58;;
50900;SDS011;36879;51.416;6.678;2023-03-14T08:27:25;8.30;;;4.22;;
50900;SDS011;36879;51.416;6.678;2023-03-14T08:29:51;6.65;;;3.63;;
50900;SDS011;36879;51.416;6.678;2023-03-14T08:32:17;6.07;;;3.63;;
50900;SDS011;36879;51.416;6.678;2023-03-14T08:34:45;7.25;;;3.50;;
50900;SDS011;36879;51.416;6.678;2023-03-14T08:37:11;5.15;;;3.33;;
50900;SDS011;36879;51.416;6.678;2023-03-14T08:39:37;5.32;;;3.20;;
50900;SDS011;36879;51.416;6.678;2023-03-14T08:42:03;5.80;;;3.03;;
50900;SDS011;36879;51.416;6.678;2023-03-14T08:44:29;5.35;;;3.25;;
50900;SDS011;36879;51.416;6.678;2023-03-14T08:46:55;5.13;;;2.85;;
50900;SDS011;36879;51.416;6.678;2023-03-14T08:49:21;4.53;;;2.65;;
50900;SDS011;36879;51.416;6.678;2023-03-14T08:51:47;3.90;;;1.98;;
50900;SDS011;36879;51.416;6.678;2023-03-14T08:54:13;5.40;;;2.00;;
50900;SDS011;36879;51.416;6.678;2023-03-14T08:56:39;3.13;;;1.83;;
50900;SDS011;36879;51.416;6.678;2023-03-14T08:59:05;7.18;;;2.40;;
50900;SDS011;36879;51.416;6.678;2023-03-14T09:01:31;5.35;;;1.52;;
50900;SDS011;36879;51.416;6.678;2023-03-14T09:03:57;6.15;;;2.17;;
50900;SDS011;36879;51.416;6.678;2023-03-14T09:06:23;2.45;;;1.00;;
50900;SDS011;36879;51.416;6.678;2023-03-14T09:08:49;2.60;;;0.90;;
50900;SDS011;36879;51.416;6.678;2023-03-14T09:11:15;3.88;;;1.50;;
50900;SDS011;36879;51.416;6.678;2023-03-14T09:13:42;1.65;;;0.90;;
50900;SDS011;36879;51.416;6.678;2023-03-14T09:16:08;3.45;;;1.13;;
50900;SDS011;36879;51.416;6.678;2023-03-14T09:18:34;2.70;;;0.95;;
50900;SDS011;36879;51.416;6.678;2023-03-14T09:21:00;2.15;;;0.90;;
50900;SDS011;36879;51.416;6.678;2023-03-14T09:23:27;2.10;;;0.90;;
50900;SDS011;36879;51.416;6.678;2023-03-14T09:25:56;2.83;;;1.10;;
50900;SDS011;36879;51.416;6.678;2023-03-14T09:28:23;3.35;;;1.20;;
50900;SDS011;36879;51.416;6.678;2023-03-14T09:30:49;3.28;;;1.52;;
50900;SDS011;36879;51.416;6.678;2023-03-14T09:33:15;2.95;;;1.85;;
50900;SDS011;36879;51.416;6.678;2023-03-14T09:35:41;4.72;;;2.13;;
50900;SDS011;36879;51.416;6.678;2023-03-14T09:38:07;4.80;;;2.13;;
50900;SDS011;36879;51.416;6.678;2023-03-14T09:40:34;4.15;;;2.08;;
50900;SDS011;36879;51.416;6.678;2023-03-14T09:43:00;4.18;;;2.42;;
50900;SDS011;36879;51.416;6.678;2023-03-14T09:47:56;5.25;;;2.83;;
50900;SDS011;36879;51.416;6.678;2023-03-14T09:50:22;7.90;;;3.03;;
50900;SDS011;36879;51.416;6.678;2023-03-14T09:52:49;5.93;;;3.30;;
50900;SDS011;36879;51.416;6.678;2023-03-14T09:55:20;6.00;;;2.67;;
50900;SDS011;36879;51.416;6.678;2023-03-14T09:57:47;5.60;;;3.40;;
50900;SDS011;36879;51.416;6.678;2023-03-14T10:00:18;5.35;;;3.17;;
50900;SDS011;36879;51.416;6.678;2023-03-14T10:02:47;8.00;;;3.85;;
50900;SDS011;36879;51.416;6.678;2023-03-14T10:05:20;9.05;;;4.68;;
50900;SDS011;36879;51.416;6.678;2023-03-14T10:07:46;6.60;;;4.05;;
50900;SDS011;36879;51.416;6.678;2023-03-14T10:10:17;9.45;;;4.82;;
50900;SDS011;36879;51.416;6.678;2023-03-14T10:12:45;10.45;;;5.22;;
50900;SDS011;36879;51.416;6.678;2023-03-14T10:15:12;8.10;;;3.38;;
50900;SDS011;36879;51.416;6.678;2023-03-14T10:17:43;4.63;;;2.28;;
50900;SDS011;36879;51.416;6.678;2023-03-14T10:21:01;6.00;;;2.75;;
50900;SDS011;36879;51.416;6.678;2023-03-14T10:25:28;7.07;;;2.95;;
50900;SDS011;36879;51.416;6.678;2023-03-14T10:27:55;6.40;;;2.53;;
50900;SDS011;36879;51.416;6.678;2023-03-14T10:31:06;5.70;;;2.55;;
50900;SDS011;36879;51.416;6.678;2023-03-14T10:33:11;3.88;;;1.50;;
50900;SDS011;36879;51.416;6.678;2023-03-14T10:35:38;3.70;;;1.88;;
50900;SDS011;36879;51.416;6.678;2023-03-14T10:38:04;3.10;;;1.30;;
50900;SDS011;36879;51.416;6.678;2023-03-14T10:40:31;4.15;;;1.35;;
50900;SDS011;36879;51.416;6.678;2023-03-14T10:42:58;3.58;;;1.73;;
50900;SDS011;36879;51.416;6.678;2023-03-14T10:45:38;4.90;;;1.90;;
50900;SDS011;36879;51.416;6.678;2023-03-14T10:51:25;7.10;;;2.13;;
50900;SDS011;36879;51.416;6.678;2023-03-14T10:55:52;6.22;;;1.88;;
50900;SDS011;36879;51.416;6.678;2023-03-14T10:58:19;4.72;;;2.30;;
50900;SDS011;36879;51.416;6.678;2023-03-14T11:03:31;3.83;;;1.60;;
50900;SDS011;36879;51.416;6.678;2023-03-14T11:05:59;5.80;;;1.67;;
50900;SDS011;36879;51.416;6.678;2023-03-14T11:08:37;5.57;;;1.27;;
50900;SDS011;36879;51.416;6.678;2023-03-14T11:11:11;3.92;;;1.88;;
50900;SDS011;36879;51.416;6.678;2023-03-14T11:26:51;7.33;;;2.67;;
50900;SDS011;36879;51.416;6.678;2023-03-14T11:31:45;5.97;;;1.40;;
50900;SDS011;36879;51.416;6.678;2023-03-14T11:37:06;4.07;;;1.48;;
50900;SDS011;36879;51.416;6.678;2023-03-14T11:39:38;3.03;;;1.58;;
50900;SDS011;36879;51.416;6.678;2023-03-14T11:42:04;1.75;;;0.80;;
50900;SDS011;36879;51.416;6.678;2023-03-14T11:44:38;1.67;;;1.00;;
50900;SDS011;36879;51.416;6.678;2023-03-14T11:47:12;4.32;;;1.02;;
50900;SDS011;36879;51.416;6.678;2023-03-14T11:49:43;3.53;;;0.90;;
50900;SDS011;36879;51.416;6.678;2023-03-14T11:54:46;2.80;;;1.00;;
50900;SDS011;36879;51.416;6.678;2023-03-14T11:57:15;10.02;;;2.58;;
50900;SDS011;36879;51.416;6.678;2023-03-14T11:59:52;5.38;;;1.00;;
50900;SDS011;36879;51.416;6.678;2023-03-14T12:07:35;2.08;;;0.90;;
50900;SDS011;36879;51.416;6.678;2023-03-14T12:10:05;4.55;;;1.30;;
50900;SDS011;36879;51.416;6.678;2023-03-14T12:12:31;7.85;;;2.55;;
50900;SDS011;36879;51.416;6.678;2023-03-14T12:14:58;3.33;;;1.58;;
50900;SDS011;36879;51.416;6.678;2023-03-14T12:17:26;8.23;;;2.50;;
50900;SDS011;36879;51.416;6.678;2023-03-14T12:20:00;7.32;;;2.30;;
50900;SDS011;36879;51.416;6.678;2023-03-14T12:22:27;4.72;;;1.27;;
50900;SDS011;36879;51.416;6.678;2023-03-14T12:27:49;8.50;;;2.58;;
50900;SDS011;36879;51.416;6.678;2023-03-14T12:30:23;3.50;;;1.67;;
50900;SDS011;36879;51.416;6.678;2023-03-14T12:38:04;9.18;;;1.50;;
50900;SDS011;36879;51.416;6.678;2023-03-14T12:40:33;13.02;;;3.00;;
50900;SDS011;36879;51.416;6.678;2023-03-14T12:43:04;9.00;;;2.30;;
50900;SDS011;36879;51.416;6.678;2023-03-14T12:45:36;8.70;;;2.47;;
50900;SDS011;36879;51.416;6.678;2023-03-14T12:48:09;9.32;;;2.30;;
50900;SDS011;36879;51.416;6.678;2023-03-14T12:53:07;12.02;;;2.92;;
50900;SDS011;36879;51.416;6.678;2023-03-14T12:55:41;8.45;;;1.63;;
50900;SDS011;36879;51.416;6.678;2023-03-14T13:00:37;8.73;;;2.05;;
50900;SDS011;36879;51.416;6.678;2023-03-14T13:03:20;14.27;;;3.33;;
50900;SDS011;36879;51.416;6.678;2023-03-14T13:05:56;8.32;;;2.15;;
50900;SDS011;36879;51.416;6.678;2023-03-14T13:08:42;9.52;;;2.70;;
50900;SDS011;36879;51.416;6.678;2023-03-14T13:11:10;9.50;;;2.03;;
50900;SDS011;36879;51.416;6.678;2023-03-14T13:13:40;11.00;;;2.20;;
50900;SDS011;36879;51.416;6.678;2023-03-14T13:16:09;8.65;;;2.58;;
50900;SDS011;36879;51.416;6.678;2023-03-14T13:18:37;12.32;;;3.30;;
50900;SDS011;36879;51.416;6.678;2023-03-14T13:21:15;13.60;;;2.85;;
50900;SDS011;36879;51.416;6.678;2023-03-14T13:23:53;13.88;;;2.83;;
50900;SDS011;36879;51.416;6.678;2023-03-14T13:26:19;12.02;;;2.80;;
50900;SDS011;36879;51.416;6.678;2023-03-14T13:28:46;12.45;;;3.97;;
50900;SDS011;36879;51.416;6.678;2023-03-14T13:31:19;24.20;;;3.97;;
50900;SDS011;36879;51.416;6.678;2023-03-14T13:33:45;16.52;;;2.95;;
50900;SDS011;36879;51.416;6.678;2023-03-14T13:36:11;14.70;;;2.63;;
50900;SDS011;36879;51.416;6.678;2023-03-14T13:38:37;14.05;;;2.67;;
50900;SDS011;36879;51.416;6.678;2023-03-14T13:41:04;13.93;;;2.65;;
50900;SDS011;36879;51.416;6.678;2023-03-14T13:43:32;12.15;;;3.22;;
50900;SDS011;36879;51.416;6.678;2023-03-14T13:48:47;16.45;;;2.75;;
50900;SDS011;36879;51.416;6.678;2023-03-14T13:51:15;16.92;;;3.58;;
50900;SDS011;36879;51.416;6.678;2023-03-14T13:53:46;13.02;;;2.58;;
50900;SDS011;36879;51.416;6.678;2023-03-14T13:56:12;11.60;;;2.65;;
50900;SDS011;36879;51.416;6.678;2023-03-14T13:58:38;13.57;;;2.42;;
50900;SDS011;36879;51.416;6.678;2023-03-14T14:03:51;14.77;;;2.97;;
50900;SDS011;36879;51.416;6.678;2023-03-14T14:08:54;7.57;;;2.33;;
50900;SDS011;36879;51.416;6.678;2023-03-14T14:11:42;10.82;;;1.50;;
50900;SDS011;36879;51.416;6.678;2023-03-14T14:14:08;6.38;;;1.38;;
50900;SDS011;36879;51.416;6.678;2023-03-14T14:16:36;6.47;;;1.52;;
50900;SDS011;36879;51.416;6.678;2023-03-14T14:19:02;11.95;;;1.63;;
50900;SDS011;36879;51.416;6.678;2023-03-14T14:21:28;7.43;;;1.10;;
50900;SDS011;36879;51.416;6.678;2023-03-14T14:23:56;9.00;;;1.80;;
50900;SDS011;36879;51.416;6.678;2023-03-14T14:26:22;6.60;;;2.40;;
50900;SDS011;36879;51.416;6.678;2023-03-14T14:28:58;9.70;;;1.98;;
50900;SDS011;36879;51.416;6.678;2023-03-14T14:31:24;8.07;;;1.63;;
50900;SDS011;36879;51.416;6.678;2023-03-14T14:36:36;7.57;;;1.38;;
50900;SDS011;36879;51.416;6.678;2023-03-14T14:39:16;1.88;;;0.98;;
50900;SDS011;36879;51.416;6.678;2023-03-14T14:41:42;4.07;;;1.38;;
50900;SDS011;36879;51.416;6.678;2023-03-14T14:44:12;7.75;;;2.00;;
50900;SDS011;36879;51.416;6.678;2023-03-14T14:46:39;9.90;;;1.85;;
50900;SDS011;36879;51.416;6.678;2023-03-14T14:49:16;3.38;;;1.35;;
50900;SDS011;36879;51.416;6.678;2023-03-14T14:51:44;5.38;;;1.70;;
50900;SDS011;36879;51.416;6.678;2023-03-14T14:54:15;7.75;;;3.35;;
50900;SDS011;36879;51.416;6.678;2023-03-14T14:56:45;7.40;;;2.20;;
50900;SDS011;36879;51.416;6.678;2023-03-14T14:59:20;8.82;;;1.95;;
50900;SDS011;36879;51.416;6.678;2023-03-14T15:01:46;5.68;;;1.70;;
50900;SDS011;36879;51.416;6.678;2023-03-14T15:04:13;7.28;;;1.80;;
50900;SDS011;36879;51.416;6.678;2023-03-14T15:06:41;5.00;;;2.20;;
50900;SDS011;36879;51.416;6.678;2023-03-14T15:09:08;7.05;;;1.52;;
50900;SDS011;36879;51.416;6.678;2023-03-14T15:11:35;9.38;;;2.10;;
50900;SDS011;36879;51.416;6.678;2023-03-14T15:14:01;9.57;;;1.42;;
50900;SDS011;36879;51.416;6.678;2023-03-14T15:16:28;7.70;;;2.08;;
50900;SDS011;36879;51.416;6.678;2023-03-14T15:18:56;11.15;;;1.60;;
50900;SDS011;36879;51.416;6.678;2023-03-14T15:21:23;3.92;;;1.15;;
50900;SDS011;36879;51.416;6.678;2023-03-14T15:23:50;4.03;;;1.65;;
50900;SDS011;36879;51.416;6.678;2023-03-14T15:26:17;4.10;;;1.23;;
50900;SDS011;36879;51.416;6.678;2023-03-14T15:28:44;7.97;;;1.10;;
50900;SDS011;36879;51.416;6.678;2023-03-14T15:31:12;5.20;;;1.85;;
50900;SDS011;36879;51.416;6.678;2023-03-14T15:33:38;6.28;;;2.25;;
50900;SDS011;36879;51.416;6.678;2023-03-14T15:36:04;5.47;;;1.15;;
50900;SDS011;36879;51.416;6.678;2023-03-14T15:38:30;7.30;;;1.40;;
50900;SDS011;36879;51.416;6.678;2023-03-14T15:40:56;4.13;;;1.20;;
50900;SDS011;36879;51.416;6.678;2023-03-14T15:43:22;3.05;;;1.40;;
50900;SDS011;36879;51.416;6.678;2023-03-14T15:45:48;9.57;;;1.60;;
50900;SDS011;36879;51.416;6.678;2023-03-14T15:48:16;5.22;;;2.33;;
50900;SDS011;36879;51.416;6.678;2023-03-14T15:50:43;2.35;;;1.02;;
50900;SDS011;36879;51.416;6.678;2023-03-14T15:53:09;7.13;;;1.70;;
50900;SDS011;36879;51.416;6.678;2023-03-14T15:55:35;4.55;;;1.40;;
50900;SDS011;36879;51.416;6.678;2023-03-14T15:58:02;6.80;;;1.55;;
50900;SDS011;36879;51.416;6.678;2023-03-14T16:00:28;2.92;;;1.00;;
50900;SDS011;36879;51.416;6.678;2023-03-14T16:02:54;3.28;;;1.00;;
50900;SDS011;36879;51.416;6.678;2023-03-14T16:05:20;8.73;;;1.35;;
50900;SDS011;36879;51.416;6.678;2023-03-14T16:07:46;5.70;;;1.48;;